Time;durP1;ratioP1;P1;durP2;ratioP2;P2;SDS_P1;SDS_P2;PMS_P1;PMS_P2;Temp;Humidity;BMP_temperature;BMP_pressure;BME280_temperature;BME280_humidity;BME280_pressure;Samples;Min_cycle;Max_cycle;Signal;HPM_P1;HPM_P2
2024/04/01 00:01:24;;;;;;;24.00;20.83;;;;;;;13.35;82.34;98583.84;5030971;28;20297;-76
2024/04/01 00:03:50;;;;;;;28.77;21.03;;;;;;;13.26;82.87;98575.56;5031093;28;20210;-76
2024/04/01 00:06:16;;;;;;;25.00;21.47;;;;;;;13.10;83.64;98566.91;5030400;28;20275;-76
2024/04/01 00:08:41;;;;;;;27.63;20.43;;;;;;;13.18;82.85;98554.22;5031004;28;20260;-76
2024/04/01 00:11:08;;;;;;;23.17;20.67;;;;;;;13.19;82.03;98568.16;5028295;28;20627;-76
2024/04/01 00:13:35;;;;;;;22.30;20.10;;;;;;;13.22;81.69;98583.69;5016747;28;20206;-76
2024/04/01 00:16:01;;;;;;;22.40;20.30;;;;;;;13.15;81.58;98601.56;5030675;28;20810;-76
2024/04/01 00:18:26;;;;;;;23.10;20.83;;;;;;;13.13;81.22;98615.69;5030986;28;20568;-77
2024/04/01 00:20:57;;;;;;;24.53;20.73;;;;;;;13.06;82.44;98616.03;5042702;28;20268;-77
2024/04/01 00:23:22;;;;;;;29.83;20.07;;;;;;;13.09;82.04;98620.25;5027028;28;20210;-76
2024/04/01 00:25:49;;;;;;;28.07;21.47;;;;;;;12.95;83.06;98610.59;5034410;28;20669;-77
2024/04/01 00:28:14;;;;;;;24.57;19.90;;;;;;;12.77;84.98;98583.69;5034750;28;20206;-76
2024/04/01 00:30:42;;;;;;;24.23;21.33;;;;;;;12.88;84.26;98569.97;5034310;28;20263;-77
2024/04/01 00:33:09;;;;;;;23.13;20.83;;;;;;;12.86;84.40;98563.97;5033647;28;20676;-76
2024/04/01 00:35:38;;;;;;;26.33;21.50;;;;;;;12.94;84.66;98558.28;5034111;28;20688;-76
2024/04/01 00:38:04;;;;;;;25.97;20.53;;;;;;;12.90;84.30;98553.25;5034336;28;20673;-76
2024/04/01 00:40:30;;;;;;;23.00;20.60;;;;;;;12.93;83.67;98556.63;5033173;28;20269;-76
2024/04/01 00:43:03;;;;;;;30.07;20.47;;;;;;;12.89;83.80;98551.53;5034166;28;20226;-76
2024/04/01 00:45:29;;;;;;;20.83;18.97;;;;;;;12.93;83.75;98561.84;5034328;28;20296;-76
2024/04/01 00:47:59;;;;;;;25.03;20.63;;;;;;;12.80;84.08;98551.25;5034029;28;20202;-77
2024/04/01 00:50:26;;;;;;;24.20;21.77;;;;;;;12.83;83.80;98544.06;5033892;28;20202;-76
2024/04/01 00:52:52;;;;;;;22.40;20.30;;;;;;;12.87;82.81;98544.72;5033613;28;20230;-77
2024/04/01 00:55:19;;;;;;;22.30;20.00;;;;;;;12.83;82.26;98553.69;5033373;28;20206;-77
2024/04/01 00:57:45;;;;;;;24.60;22.00;;;;;;;12.80;82.14;98567.78;5034180;28;20253;-77
2024/04/01 01:00:12;;;;;;;29.10;22.40;;;;;;;12.80;82.25;98561.72;5033992;28;20263;-76
2024/04/01 01:02:38;;;;;;;27.07;21.87;;;;;;;12.69;83.37;98551.88;5033614;28;20734;-76
2024/04/01 01:05:07;;;;;;;28.67;22.07;;;;;;;12.73;83.22;98536.84;5033611;28;20210;-77
2024/04/01 01:07:32;;;;;;;25.60;23.10;;;;;;;12.66;84.00;98518.00;5038850;28;20228;-76
2024/04/01 01:09:59;;;;;;;26.50;23.87;;;;;;;12.63;84.15;98508.56;5025909;28;20202;-76
2024/04/01 01:12:24;;;;;;;33.60;26.33;;;;;;;12.59;84.90;98495.75;5033310;28;20205;-76
2024/04/01 01:14:51;;;;;;;36.37;26.03;;;;;;;12.48;85.83;98472.81;5033837;28;20239;-76
2024/04/01 01:17:16;;;;;;;27.53;24.77;;;;;;;12.52;85.63;98462.06;5033429;28;20708;-76
2024/04/01 01:19:43;;;;;;;29.00;25.90;;;;;;;12.54;84.84;98466.38;5033122;28;20278;-76
2024/04/01 01:22:14;;;;;;;29.17;24.13;;;;;;;12.57;84.91;98466.22;5033333;28;20217;-76
2024/04/01 01:24:40;;;;;;;28.37;25.20;;;;;;;12.51;85.68;98459.56;5033785;28;20297;-77
2024/04/01 01:27:06;;;;;;;32.67;26.60;;;;;;;12.47;85.71;98452.84;5039733;28;20281;-76
2024/04/01 01:29:32;;;;;;;30.53;25.80;;;;;;;12.46;85.92;98448.53;5026389;28;20206;-76
2024/04/01 01:32:00;;;;;;;36.80;25.97;;;;;;;12.45;85.99;98439.84;5032887;28;20206;-76
2024/04/01 01:34:27;;;;;;;30.57;25.73;;;;;;;12.44;85.46;98432.91;5032856;28;20202;-76
2024/04/01 01:36:53;;;;;;;31.10;26.80;;;;;;;12.34;85.93;98428.31;5032899;28;20298;-76
2024/04/01 01:39:21;;;;;;;32.23;26.13;;;;;;;12.38;86.08;98419.34;5032542;28;20639;-76
2024/04/01 01:41:46;;;;;;;35.37;24.73;;;;;;;12.40;84.94;98439.25;5024311;28;20206;-76
2024/04/01 01:44:13;;;;;;;27.57;24.73;;;;;;;12.37;84.65;98443.81;5039336;28;20227;-76
2024/04/01 01:46:38;;;;;;;28.23;25.17;;;;;;;12.30;84.56;98454.63;5027064;28;20230;-76
2024/04/01 01:49:04;;;;;;;34.67;25.50;;;;;;;12.23;85.43;98436.75;5032851;28;20251;-76
2024/04/01 01:51:31;;;;;;;28.70;25.10;;;;;;;12.17;86.19;98437.13;5032966;28;20260;-76
2024/04/01 01:53:57;;;;;;;35.03;25.63;;;;;;;12.18;85.87;98431.81;5032956;28;20203;-76
2024/04/01 01:56:24;;;;;;;33.87;25.80;;;;;;;12.15;86.58;98429.41;5027285;28;20229;-76
2024/04/01 01:58:51;;;;;;;32.53;26.83;;;;;;;12.22;86.37;98430.69;5028449;28;20204;-76
2024/04/01 02:01:16;;;;;;;49.67;33.07;;;;;;;11.48;93.80;98353.84;5032515;28;20248;-76
2024/04/01 02:03:44;;;;;;;50.50;31.87;;;;;;;11.48;97.35;98249.34;5032557;28;20209;-76
2024/04/01 02:06:09;;;;;;;45.67;30.27;;;;;;;11.69;95.35;98238.56;5030896;28;20256;-76
2024/04/01 02:08:36;;;;;;;40.20;29.73;;;;;;;11.88;93.42;98248.78;5026097;28;20652;-76
2024/04/01 02:11:01;;;;;;;36.10;29.10;;;;;;;12.00;92.25;98274.22;5031398;28;20653;-76
2024/04/01 02:13:29;;;;;;;32.50;27.80;;;;;;;12.07;90.57;98296.47;5032304;28;20256;-76
2024/04/01 02:16:06;;;;;;;32.50;26.73;;;;;;;12.14;89.57;98319.63;5032169;28;20287;-76
2024/04/01 02:18:32;;;;;;;31.03;26.60;;;;;;;12.09;89.14;98336.44;5036216;28;20256;-76
2024/04/01 02:20:58;;;;;;;35.60;27.63;;;;;;;12.06;88.89;98348.84;5028685;28;20265;-77
2024/04/01 02:23:29;;;;;;;30.37;26.07;;;;;;;11.99;89.29;98348.38;5024105;28;20688;-76
2024/04/01 02:25:58;;;;;;;30.17;26.97;;;;;;;12.07;88.50;98354.00;5031625;28;20257;-76
2024/04/01 02:28:24;;;;;;;32.27;27.70;;;;;;;12.04;88.20;98362.00;5024205;28;20248;-76
2024/04/01 02:30:51;;;;;;;30.60;27.60;;;;;;;12.02;88.61;98363.03;5031801;28;20214;-76
2024/04/01 02:33:17;;;;;;;31.03;27.13;;;;;;;12.00;88.08;98367.50;5032342;28;20213;-76
2024/04/01 02:35:43;;;;;;;33.27;27.90;;;;;;;11.91;88.39;98364.50;5031837;28;20267;-76
2024/04/01 02:38:09;;;;;;;30.10;26.87;;;;;;;11.99;87.93;98351.00;5032072;28;20236;-77
2024/04/01 02:40:34;;;;;;;35.60;29.63;;;;;;;12.06;86.98;98357.53;5031465;28;20225;-76
2024/04/01 02:43:02;;;;;;;38.70;29.00;;;;;;;12.00;87.58;98365.72;5022616;28;20265;-76
2024/04/01 02:45:28;;;;;;;32.10;28.77;;;;;;;12.01;87.66;98371.78;5024130;28;20238;-76
2024/04/01 02:47:56;;;;;;;37.20;29.00;;;;;;;12.03;87.70;98373.41;5031804;28;20236;-76
2024/04/01 02:50:22;;;;;;;35.17;29.23;;;;;;;12.05;87.30;98378.53;5031561;28;20202;-76
2024/04/01 02:52:48;;;;;;;37.97;30.63;;;;;;;11.88;88.09;98372.47;5031701;28;20226;-76
2024/04/01 02:55:14;;;;;;;38.60;29.73;;;;;;;11.98;88.36;98346.69;5031024;28;20274;-76
2024/04/01 02:57:40;;;;;;;35.63;31.73;;;;;;;12.04;87.42;98348.09;5034460;28;20226;-76
2024/04/01 03:00:07;;;;;;;35.13;29.37;;;;;;;12.02;87.19;98342.94;5028676;28;20229;-76
2024/04/01 03:02:34;;;;;;;34.07;29.77;;;;;;;12.01;87.41;98343.03;5031472;28;20788;-77
2024/04/01 03:05:01;;;;;;;31.77;28.40;;;;;;;11.99;86.93;98340.53;5031665;28;20205;-76
2024/04/01 03:07:28;;;;;;;35.80;29.37;;;;;;;11.97;86.89;98345.00;5031706;28;20286;-76
2024/04/01 03:09:54;;;;;;;42.93;29.33;;;;;;;11.87;87.48;98334.22;5031449;28;20213;-76
2024/04/01 03:12:20;;;;;;;36.03;28.47;;;;;;;11.79;87.69;98328.56;5030780;28;20214;-77
2024/04/01 03:14:46;;;;;;;44.70;29.77;;;;;;;11.84;87.97;98312.63;5031353;28;20617;-77
2024/04/01 03:17:16;;;;;;;39.00;31.10;;;;;;;11.89;88.17;98305.38;5031488;28;20232;-77
2024/04/01 03:19:41;;;;;;;40.57;31.03;;;;;;;11.58;89.79;98303.69;5031499;28;20224;-77
2024/04/01 03:22:09;;;;;;;40.13;32.30;;;;;;;11.20;93.66;98242.25;5031467;28;20202;-77
2024/04/01 03:24:34;;;;;;;43.30;32.83;;;;;;;10.89;96.54;98185.72;5031334;28;20247;-76
2024/04/01 03:27:00;;;;;;;42.80;34.97;;;;;;;10.75;98.21;98138.69;5031113;28;20229;-77
2024/04/01 03:29:26;;;;;;;44.87;34.33;;;;;;;10.61;99.02;98114.22;5030969;28;20213;-77
2024/04/01 03:31:52;;;;;;;39.67;33.50;;;;;;;10.60;98.82;98102.06;5031180;28;20900;-77
2024/04/01 03:34:19;;;;;;;42.57;36.17;;;;;;;10.44;100.00;98090.84;5031423;28;20208;-76
2024/04/01 03:36:46;;;;;;;42.80;35.60;;;;;;;10.46;100.00;98055.06;5031017;28;20238;-77
2024/04/01 03:39:14;;;;;;;54.87;36.53;;;;;;;10.69;100.00;98051.16;5031142;28;20208;-77
2024/04/01 03:41:41;;;;;;;47.33;37.23;;;;;;;10.91;99.51;98066.41;5018797;28;20665;-77
2024/04/01 03:44:07;;;;;;;46.63;36.00;;;;;;;11.08;98.47;98088.88;5020043;28;20746;-77
2024/04/01 03:46:32;;;;;;;46.33;37.07;;;;;;;11.09;97.23;98122.75;5030896;28;20704;-77
2024/04/01 03:48:59;;;;;;;49.73;37.60;;;;;;;10.81;97.87;98149.59;5030878;28;20206;-76
2024/04/01 03:51:24;;;;;;;56.27;39.50;;;;;;;10.48;100.00;98098.38;5031090;28;20263;-76
2024/04/01 03:53:50;;;;;;;54.97;42.00;;;;;;;10.26;100.00;98051.78;5033392;28;20622;-76
2024/04/01 03:56:18;;;;;;;55.70;43.10;;;;;;;10.26;100.00;97991.81;5034207;28;20224;-76
2024/04/01 03:58:45;;;;;;;58.67;42.70;;;;;;;10.45;100.00;97976.00;5035208;28;20262;-76
2024/04/01 04:01:11;;;;;;;51.33;39.57;;;;;;;10.61;100.00;97982.94;5034534;28;20723;-76
2024/04/01 04:03:38;;;;;;;47.10;38.17;;;;;;;10.87;100.00;97999.66;5039636;28;20227;-76
2024/04/01 04:06:04;;;;;;;50.87;36.07;;;;;;;11.09;100.00;98014.88;5021665;28;20876;-76
2024/04/01 04:08:30;;;;;;;55.80;36.40;;;;;;;11.23;99.83;98048.81;5027015;28;20204;-75
2024/04/01 04:10:56;;;;;;;44.37;34.63;;;;;;;11.37;98.70;98068.06;5034188;28;20687;-76
2024/04/01 04:13:23;;;;;;;43.10;34.60;;;;;;;11.45;97.34;98092.75;5034555;28;20241;-76
2024/04/01 04:15:50;;;;;;;46.30;35.57;;;;;;;11.49;95.58;98123.00;5034586;28;20230;-76
2024/04/01 04:18:15;;;;;;;46.60;34.03;;;;;;;11.54;94.77;98143.63;5034800;28;20210;-76
2024/04/01 04:20:41;;;;;;;37.90;32.90;;;;;;;11.55;94.13;98147.91;5033959;28;20637;-76
2024/04/01 04:23:07;;;;;;;41.40;34.80;;;;;;;11.53;93.88;98157.63;5034442;28;20678;-76
2024/04/01 04:25:33;;;;;;;44.43;33.10;;;;;;;11.50;93.73;98153.44;5033813;28;20211;-76
2024/04/01 04:27:58;;;;;;;35.27;31.63;;;;;;;11.55;93.51;98160.97;5034529;28;20613;-76
2024/04/01 04:30:26;;;;;;;33.87;30.40;;;;;;;11.62;92.91;98169.31;5034603;28;20210;-76
2024/04/01 04:32:53;;;;;;;39.80;32.37;;;;;;;11.66;92.13;98187.31;5034267;28;20213;-76
2024/04/01 04:35:19;;;;;;;39.27;31.57;;;;;;;11.65;91.87;98205.69;5034076;28;20216;-76
2024/04/01 04:37:45;;;;;;;42.47;33.00;;;;;;;11.68;91.93;98195.06;5034199;28;20225;-76
2024/04/01 04:40:14;;;;;;;35.00;30.83;;;;;;;11.71;91.78;98197.50;5033339;28;20237;-76
2024/04/01 04:42:39;;;;;;;35.30;31.37;;;;;;;11.74;91.55;98202.53;5034055;28;20202;-76
2024/04/01 04:45:06;;;;;;;34.90;28.83;;;;;;;11.76;91.11;98205.06;5034265;28;20217;-76
2024/04/01 04:47:33;;;;;;;33.40;29.77;;;;;;;11.79;91.55;98199.66;5034039;28;20228;-76
2024/04/01 04:50:00;;;;;;;41.10;30.23;;;;;;;11.73;91.55;98190.41;5034271;28;20563;-76
2024/04/01 04:52:26;;;;;;;32.13;28.90;;;;;;;11.75;91.82;98185.91;5034017;28;20218;-76
2024/04/01 04:54:52;;;;;;;35.37;26.67;;;;;;;11.76;91.39;98192.84;5034070;28;20993;-76
2024/04/01 04:57:17;;;;;;;40.40;24.70;;;;;;;11.80;91.69;98210.03;5033402;28;20295;-76
2024/04/01 04:59:44;;;;;;;25.33;22.60;;;;;;;11.84;91.90;98211.50;5033967;28;20715;-77
2024/04/01 05:02:09;;;;;;;27.93;24.17;;;;;;;11.80;92.49;98206.56;5033615;28;20206;-76
2024/04/01 05:04:37;;;;;;;27.47;24.67;;;;;;;11.85;92.31;98204.50;5033894;28;20202;-76
2024/04/01 05:07:03;;;;;;;25.43;23.03;;;;;;;11.88;92.54;98193.88;5033382;28;20287;-77
2024/04/01 05:09:29;;;;;;;32.80;23.50;;;;;;;11.82;92.61;98184.63;5033507;28;20202;-76
2024/04/01 05:11:55;;;;;;;25.40;22.80;;;;;;;11.87;92.66;98189.56;5033173;28;20217;-76
2024/04/01 05:14:22;;;;;;;28.97;22.10;;;;;;;11.91;91.58;98181.50;5033514;28;20350;-76
2024/04/01 05:16:47;;;;;;;26.20;19.93;;;;;;;11.98;90.97;98194.19;5033422;28;20227;-76
2024/04/01 05:19:13;;;;;;;24.60;20.73;;;;;;;11.95;91.60;98205.66;5033149;28;20206;-76
2024/04/01 05:21:40;;;;;;;23.97;21.07;;;;;;;11.96;91.62;98204.75;5033582;28;20219;-76
2024/04/01 05:24:07;;;;;;;33.37;27.03;;;;;;;11.88;91.85;98209.56;5033226;28;20210;-76
2024/04/01 05:26:33;;;;;;;35.40;28.33;;;;;;;11.87;91.78;98211.34;5032867;28;20237;-76
2024/04/01 05:29:00;;;;;;;29.87;26.70;;;;;;;11.91;91.58;98210.25;5033198;28;20209;-76
2024/04/01 05:31:25;;;;;;;32.00;22.83;;;;;;;11.94;91.02;98208.38;5030607;28;20251;-76
2024/04/01 05:33:52;;;;;;;27.70;24.73;;;;;;;11.95;91.69;98210.06;5027676;28;20206;-76
2024/04/01 05:36:18;;;;;;;24.17;21.60;;;;;;;11.97;91.55;98216.03;5032666;28;20240;-76
2024/04/01 05:38:46;;;;;;;26.87;21.63;;;;;;;11.94;92.03;98222.28;5033194;28;20281;-75
2024/04/01 05:41:13;;;;;;;22.80;20.10;;;;;;;11.95;92.56;98223.97;5031907;28;20770;-76
2024/04/01 05:43:40;;;;;;;21.60;19.60;;;;;;;11.94;92.67;98227.53;5032871;28;20213;-76
2024/04/01 05:46:05;;;;;;;26.13;21.33;;;;;;;11.85;93.59;98217.56;5032549;28;20233;-76
2024/04/01 05:48:31;;;;;;;25.40;20.63;;;;;;;11.49;96.83;98183.09;5032576;28;20212;-76
2024/04/01 05:50:57;;;;;;;33.37;26.43;;;;;;;10.72;100.00;98124.88;5032700;28;20206;-76
2024/04/01 05:53:23;;;;;;;25.97;23.27;;;;;;;10.99;100.00;98034.63;5032803;28;20698;-76
2024/04/01 05:55:50;;;;;;;53.73;43.40;;;;;;;10.41;100.00;98003.19;5032372;28;20228;-77
2024/04/01 05:58:16;;;;;;;55.70;42.63;;;;;;;10.72;100.00;97988.34;5032625;28;20241;-76
2024/04/01 06:00:42;;;;;;;66.10;40.83;;;;;;;10.93;100.00;97994.06;5032385;28;20843;-76
2024/04/01 06:03:08;;;;;;;59.80;38.90;;;;;;;11.16;100.00;97986.59;5032506;28;20245;-76
2024/04/01 06:05:34;;;;;;;52.03;38.90;;;;;;;11.32;100.00;98016.09;5032217;28;20206;-76
2024/04/01 06:08:00;;;;;;;54.33;42.93;;;;;;;11.11;100.00;98032.13;5032954;28;20206;-76
2024/04/01 06:10:26;;;;;;;57.80;42.93;;;;;;;11.27;100.00;98033.81;5031473;28;20272;-76
2024/04/01 06:12:54;;;;;;;58.70;41.03;;;;;;;11.35;100.00;98034.19;5032285;28;20213;-77
2024/04/01 06:15:20;;;;;;;60.27;40.73;;;;;;;11.45;100.00;98032.69;5034056;28;20206;-76
2024/04/01 06:17:46;;;;;;;49.43;38.37;;;;;;;11.53;100.00;98042.66;5024383;28;20218;-76
2024/04/01 06:20:11;;;;;;;48.70;35.07;;;;;;;11.67;100.00;98055.75;5011945;28;20273;-76
2024/04/01 06:22:38;;;;;;;48.47;33.97;;;;;;;11.70;100.00;98094.72;5024686;28;20202;-76
2024/04/01 06:25:04;;;;;;;39.87;32.63;;;;;;;11.81;99.18;98095.84;5031996;28;20264;-75
2024/04/01 06:27:30;;;;;;;50.53;35.50;;;;;;;11.85;98.20;98124.34;5032266;28;20312;-76
2024/04/01 06:29:57;;;;;;;36.53;31.33;;;;;;;11.87;98.37;98109.41;5032084;28;20260;-75
2024/04/01 06:32:24;;;;;;;42.70;30.90;;;;;;;11.95;96.69;98111.53;5031700;28;20208;-75
2024/04/01 06:34:50;;;;;;;37.43;29.87;;;;;;;11.95;95.98;98132.44;5031656;28;20741;-75
2024/04/01 06:37:16;;;;;;;37.13;27.93;;;;;;;11.87;97.58;98122.47;5031881;28;20248;-76
2024/04/01 06:39:41;;;;;;;27.93;25.10;;;;;;;11.96;97.08;98117.63;5031743;28;20210;-75
2024/04/01 06:42:08;;;;;;;30.03;27.03;;;;;;;11.96;96.71;98139.38;5031726;28;20259;-76
2024/04/01 06:44:33;;;;;;;31.97;25.50;;;;;;;12.00;96.92;98133.03;5031872;28;20206;-76
2024/04/01 06:47:01;;;;;;;33.70;25.43;;;;;;;12.07;96.51;98130.84;5031948;28;20226;-75
2024/04/01 06:49:26;;;;;;;31.90;27.07;;;;;;;12.12;96.36;98132.25;5037697;28;20206;-76
2024/04/01 06:51:52;;;;;;;29.17;26.30;;;;;;;12.11;97.46;98130.59;5028200;28;20261;-75
2024/04/01 06:54:18;;;;;;;33.77;25.83;;;;;;;12.18;97.03;98109.28;5029419;28;20671;-76
2024/04/01 06:56:44;;;;;;;25.83;23.43;;;;;;;12.19;97.41;98108.31;5031340;28;20371;-75
2024/04/01 06:59:10;;;;;;;25.30;22.47;;;;;;;12.27;97.02;98103.47;5031738;28;20240;-74
2024/04/01 07:01:36;;;;;;;25.43;23.13;;;;;;;12.30;96.60;98103.25;5031204;28;20228;-75
2024/04/01 07:04:03;;;;;;;24.10;21.87;;;;;;;12.35;96.19;98095.13;5031103;28;20211;-76
2024/04/01 07:06:29;;;;;;;26.07;23.40;;;;;;;12.41;95.48;98120.91;5031639;28;20228;-75
2024/04/01 07:08:55;;;;;;;28.50;24.77;;;;;;;12.44;95.05;98125.94;5031695;28;20213;-76
2024/04/01 07:11:22;;;;;;;30.30;24.93;;;;;;;12.49;93.61;98147.41;5030627;28;20201;-75
2024/04/01 07:13:47;;;;;;;30.73;22.90;;;;;;;12.49;92.84;98163.97;5031502;28;20216;-75
2024/04/01 07:16:13;;;;;;;25.73;22.83;;;;;;;12.49;92.74;98163.97;5030774;28;20782;-75
2024/04/01 07:18:39;;;;;;;23.80;21.37;;;;;;;12.47;92.78;98168.44;5031610;28;20205;-75
2024/04/01 07:21:06;;;;;;;21.30;19.50;;;;;;;12.48;92.36;98172.72;5031295;28;20276;-75
2024/04/01 07:23:32;;;;;;;21.53;19.30;;;;;;;12.50;92.44;98177.88;5031425;28;20290;-75
2024/04/01 07:25:58;;;;;;;21.57;19.47;;;;;;;12.47;92.96;98180.69;5030923;28;20710;-77
2024/04/01 07:28:23;;;;;;;29.60;20.57;;;;;;;12.47;93.86;98172.84;5031667;28;20216;-78
2024/04/01 07:30:50;;;;;;;22.87;19.97;;;;;;;12.48;93.86;98183.19;5030952;28;20201;-75
2024/04/01 07:33:15;;;;;;;23.37;20.93;;;;;;;12.49;93.53;98186.69;5031762;28;20263;-75
2024/04/01 07:35:41;;;;;;;25.57;20.93;;;;;;;12.49;93.64;98184.88;5030875;28;20202;-76
2024/04/01 07:38:08;;;;;;;21.20;19.13;;;;;;;12.34;96.56;98154.44;5031415;28;20279;-75
2024/04/01 07:40:34;;;;;;;24.00;20.60;;;;;;;12.29;96.71;98146.06;5030205;28;20225;-76
2024/04/01 07:43:00;;;;;;;23.30;20.90;;;;;;;12.23;98.30;98135.97;5031078;28;20206;-76
2024/04/01 07:45:26;;;;;;;24.30;21.13;;;;;;;12.14;99.96;98108.63;5031010;28;20709;-76
2024/04/01 07:47:51;;;;;;;25.23;23.03;;;;;;;11.86;100.00;98078.13;5031141;28;20287;-76
2024/04/01 07:50:19;;;;;;;31.30;22.67;;;;;;;11.64;100.00;98066.38;5030723;28;20208;-77
2024/04/01 07:52:44;;;;;;;27.27;24.77;;;;;;;11.43;100.00;98029.31;5011748;28;20720;-76
2024/04/01 07:55:12;;;;;;;28.20;25.33;;;;;;;11.63;100.00;97988.91;5026587;28;20212;-76
2024/04/01 07:57:37;;;;;;;29.20;26.23;;;;;;;11.19;100.00;97989.88;5030863;28;20276;-76
2024/04/01 08:00:04;;;;;;;32.40;28.87;;;;;;;11.18;100.00;97951.66;5030671;28;20210;-75
2024/04/01 08:02:30;;;;;;;39.87;31.57;;;;;;;10.79;100.00;97902.72;5030607;28;20295;-75
2024/04/01 08:04:56;;;;;;;47.17;36.43;;;;;;;10.97;100.00;97883.31;5036488;28;20304;-76
2024/04/01 08:07:22;;;;;;;44.80;31.90;;;;;;;10.76;100.00;97856.75;5025129;28;20232;-76
2024/04/01 08:09:49;;;;;;;34.57;30.70;;;;;;;10.92;100.00;97834.03;5030449;28;20628;-76
2024/04/01 08:12:15;;;;;;;38.50;32.10;;;;;;;10.73;100.00;97854.34;5028750;28;20205;-77
2024/04/01 08:14:42;;;;;;;38.10;31.53;;;;;;;10.95;100.00;97848.66;5029236;28;20244;-77
2024/04/01 08:17:07;;;;;;;39.33;30.17;;;;;;;11.26;100.00;97852.78;5030963;28;20224;-77
2024/04/01 08:19:33;;;;;;;34.73;29.80;;;;;;;11.53;100.00;97870.25;5032874;28;20247;-77
2024/04/01 08:21:59;;;;;;;31.63;27.93;;;;;;;11.75;100.00;97889.75;5031084;28;20290;-79
2024/04/01 08:24:25;;;;;;;32.07;26.30;;;;;;;11.56;100.00;97935.38;5033291;28;20626;-79
2024/04/01 08:26:50;;;;;;;26.90;24.17;;;;;;;11.74;100.00;97954.25;5032013;28;20307;-78
2024/04/01 08:29:18;;;;;;;28.13;25.43;;;;;;;11.64;100.00;97956.63;5023809;28;20668;-79
2024/04/01 08:31:43;;;;;;;28.30;25.40;;;;;;;11.53;100.00;97965.16;5031652;28;20573;-76
2024/04/01 08:34:10;;;;;;;30.63;27.37;;;;;;;11.30;100.00;97950.06;5032025;28;20210;-80
2024/04/01 08:36:36;;;;;;;35.90;26.87;;;;;;;11.59;100.00;97927.31;5034292;28;20735;-79
2024/04/01 08:39:04;;;;;;;29.10;26.20;;;;;;;11.64;100.00;97921.81;5034711;28;20236;-79
2024/04/01 08:41:34;;;;;;;31.30;25.80;;;;;;;11.86;100.00;97937.78;5039408;28;20229;-79
2024/04/01 08:44:07;;;;;;;29.93;24.93;;;;;;;11.96;100.00;97973.84;5041076;28;20209;-80
2024/04/01 08:46:38;;;;;;;24.20;21.73;;;;;;;12.20;100.00;97992.31;5042174;28;20255;-80
2024/04/01 08:49:10;;;;;;;24.63;22.43;;;;;;;12.32;100.00;98036.00;5042009;28;20747;-79
2024/04/01 08:51:36;;;;;;;26.00;21.30;;;;;;;12.38;100.00;98059.13;5042715;28;20202;-80
2024/04/01 08:54:04;;;;;;;23.83;21.50;;;;;;;12.42;100.00;98067.63;5042487;28;20220;-80
2024/04/01 08:56:31;;;;;;;23.47;21.10;;;;;;;12.34;100.00;98075.13;5041782;28;20230;-80
2024/04/01 08:58:58;;;;;;;24.27;21.73;;;;;;;12.47;100.00;98094.34;5041504;28;20209;-81
2024/04/01 09:01:24;;;;;;;24.17;21.73;;;;;;;12.61;100.00;98124.88;5040377;28;20279;-82
2024/04/01 09:03:52;;;;;;;22.97;21.07;;;;;;;12.67;100.00;98146.22;5038923;28;20213;-80
2024/04/01 09:06:19;;;;;;;21.37;19.47;;;;;;;12.74;97.68;98177.25;5040013;28;20229;-80
2024/04/01 09:08:46;;;;;;;23.13;21.00;;;;;;;12.75;96.31;98215.59;5039422;28;20210;-81
2024/04/01 09:11:11;;;;;;;22.73;20.47;;;;;;;12.78;96.36;98218.00;5023305;28;20214;-79
2024/04/01 09:13:38;;;;;;;22.87;20.30;;;;;;;12.84;95.97;98233.31;5038118;28;20201;-81
2024/04/01 09:16:04;;;;;;;22.17;20.27;;;;;;;12.90;94.97;98254.72;5040026;28;20782;-81
2024/04/01 09:18:36;;;;;;;24.43;22.10;;;;;;;12.93;95.21;98258.09;5049550;28;20194;-80
2024/04/01 09:21:04;;;;;;;23.87;21.50;;;;;;;12.92;95.83;98257.22;5055283;28;20237;-80
2024/04/01 09:23:31;;;;;;;24.20;21.67;;;;;;;12.94;95.78;98242.25;5053670;28;20292;-80
2024/04/01 09:25:57;;;;;;;25.80;22.57;;;;;;;12.99;95.10;98241.97;5049942;28;20222;-80
2024/04/01 09:28:24;;;;;;;25.10;22.47;;;;;;;13.00;95.04;98254.97;5044372;28;20615;-80
2024/04/01 09:30:49;;;;;;;23.53;21.40;;;;;;;13.01;94.63;98264.50;5037419;28;20263;-78
2024/04/01 09:33:16;;;;;;;25.47;22.77;;;;;;;13.02;95.33;98257.47;5035542;28;20205;-77
2024/04/01 09:35:41;;;;;;;23.57;20.57;;;;;;;13.03;95.61;98244.28;5035003;28;20206;-77
2024/04/01 09:38:09;;;;;;;25.30;22.43;;;;;;;13.07;95.33;98240.53;5034421;28;20259;-77
2024/04/01 09:40:35;;;;;;;25.23;22.73;;;;;;;13.12;94.92;98232.38;5033722;28;20264;-77
2024/04/01 09:43:02;;;;;;;25.27;22.77;;;;;;;13.13;94.81;98225.38;5035253;28;20700;-78
2024/04/01 09:45:29;;;;;;;26.60;22.77;;;;;;;13.16;95.53;98214.69;5036028;28;20213;-78
2024/04/01 09:47:55;;;;;;;25.43;22.73;;;;;;;13.23;95.33;98206.31;5035848;28;20213;-78
2024/04/01 09:50:21;;;;;;;25.43;22.97;;;;;;;13.29;95.26;98213.81;5035544;28;20247;-77
2024/04/01 09:52:48;;;;;;;24.97;22.50;;;;;;;13.36;95.08;98221.25;5035793;28;20618;-77
2024/04/01 09:55:19;;;;;;;25.37;22.83;;;;;;;13.38;94.67;98216.75;5034882;28;20301;-78
2024/04/01 09:58:15;;;;;;;25.43;23.00;;;;;;;13.41;95.60;98199.06;5036210;28;20232;-78
2024/04/01 10:00:49;;;;;;;27.17;22.53;;;;;;;13.49;95.89;98190.69;5038133;28;20240;-77
2024/04/01 10:04:00;;;;;;;21.23;19.33;;;;;;;13.51;95.39;98187.00;5024243;28;20224;-77
2024/04/01 10:07:06;;;;;;;24.07;21.77;;;;;;;13.59;93.25;98209.25;4334590;28;10000722;-77
2024/04/01 10:10:04;;;;;;;20.70;19.10;;;;;;;13.50;93.60;98208.94;5033118;28;20300;-78
2024/04/01 10:13:12;;;;;;;24.20;19.67;;;;;;;13.44;94.95;98196.25;5033624;28;20236;-78
2024/04/01 10:16:11;;;;;;;24.33;20.70;;;;;;;13.32;94.18;98194.44;5031936;28;20209;-78
2024/04/01 10:19:05;;;;;;;20.17;18.37;;;;;;;12.75;96.66;98174.53;5033020;28;20225;-77
2024/04/01 10:21:57;;;;;;;22.80;19.17;;;;;;;12.98;97.02;98131.13;5029558;28;20296;-77
2024/04/01 10:24:52;;;;;;;22.07;19.83;;;;;;;12.98;98.56;98104.09;5031651;28;20256;-77
2024/04/01 10:27:51;;;;;;;20.47;18.57;;;;;;;12.90;98.09;98086.28;5030130;28;20316;-76
2024/04/01 10:30:38;;;;;;;22.90;20.13;;;;;;;12.79;100.00;98073.09;5031714;28;20217;-78
2024/04/01 10:33:37;;;;;;;22.40;20.43;;;;;;;12.90;100.00;98049.63;5030186;28;20929;-77
2024/04/01 10:36:10;;;;;;;23.37;21.07;;;;;;;12.98;100.00;98049.13;5030476;28;20241;-77
2024/04/01 10:39:19;;;;;;;27.87;22.97;;;;;;;12.13;100.00;98002.34;5033942;28;20208;-78
2024/04/01 10:42:23;;;;;;;27.10;24.47;;;;;;;12.05;100.00;97921.78;4955086;28;20220;-77
2024/04/01 10:45:22;;;;;;;29.90;26.30;;;;;;;12.11;100.00;97881.34;5022465;28;20244;-77
2024/04/01 10:48:17;;;;;;;29.97;24.93;;;;;;;11.83;100.00;97856.97;5004075;28;20290;-77
2024/04/01 10:51:15;;;;;;;24.90;22.50;;;;;;;11.82;100.00;97855.28;5032695;28;20213;-77
2024/04/01 10:54:04;;;;;;;24.10;21.73;;;;;;;12.09;100.00;97883.19;5031571;28;20209;-77
2024/04/01 10:57:05;;;;;;;23.63;21.63;;;;;;;12.02;100.00;97895.84;5026395;28;20240;-77
2024/04/01 10:59:56;;;;;;;23.83;21.37;;;;;;;11.82;100.00;97904.94;5029732;28;20219;-77
2024/04/01 11:02:51;;;;;;;26.30;23.80;;;;;;;11.80;100.00;97904.22;5031375;28;20228;-77
2024/04/01 11:05:30;;;;;;;26.77;24.10;;;;;;;11.65;100.00;97900.78;5032164;28;20214;-78
2024/04/01 11:08:05;;;;;;;23.47;21.37;;;;;;;11.55;100.00;97883.22;5033310;28;20213;-77
2024/04/01 11:10:38;;;;;;;23.50;21.53;;;;;;;11.73;100.00;97882.88;5022632;28;20236;-77
2024/04/01 11:13:07;;;;;;;23.03;20.80;;;;;;;11.57;100.00;97890.00;5032533;28;20213;-77
2024/04/01 11:15:33;;;;;;;22.03;20.20;;;;;;;11.51;100.00;97901.69;5031889;28;20262;-77
2024/04/01 11:18:07;;;;;;;21.70;19.80;;;;;;;11.84;100.00;97900.47;5031237;28;20221;-77
2024/04/01 11:20:40;;;;;;;27.90;25.40;;;;;;;11.83;100.00;97913.63;5032176;28;20209;-77
2024/04/01 11:23:39;;;;;;;28.00;25.07;;;;;;;11.71;100.00;97918.72;5032703;28;20299;-77